Time;durP1;ratioP1;P1;durP2;ratioP2;P2;SDS_P1;SDS_P2;PMS_P1;PMS_P2;Temp;Humidity;BMP_temperature;BMP_pressure;BME280_temperature;BME280_humidity;BME280_pressure;Samples;Min_cycle;Max_cycle;Signal;HPM_P1;HPM_P2
2023/10/12 00:01:39;;;;;;;12.00;7.18;;;21.40;65.50;22.90;100966.00;;;;5070653;28;20219;-74
2023/10/12 00:04:08;;;;;;;11.52;7.25;;;21.40;65.50;22.90;100965.00;;;;5075848;28;20628;-73
2023/10/12 00:06:37;;;;;;;13.30;7.20;;;21.40;65.60;22.90;100973.00;;;;5081891;28;20275;-74
2023/10/12 00:09:16;;;;;;;11.57;7.07;;;21.40;65.70;22.90;100984.00;;;;5076573;28;20206;-73
2023/10/12 00:11:46;;;;;;;10.63;7.07;;;21.40;65.80;22.90;100987.00;;;;5073836;28;20190;-74
2023/10/12 00:14:15;;;;;;;9.85;6.47;;;21.40;65.90;22.90;100991.00;;;;5078986;28;20284;-74
2023/10/12 00:16:42;;;;;;;10.35;6.88;;;21.40;66.50;22.90;100999.00;;;;5072251;28;20248;-74
2023/10/12 00:19:12;;;;;;;10.80;6.93;;;21.40;66.10;22.90;101005.00;;;;5070262;28;20198;-74
2023/10/12 00:21:43;;;;;;;11.48;7.25;;;21.30;66.10;22.90;101006.00;;;;5070231;28;20191;-74
2023/10/12 00:24:11;;;;;;;12.90;7.10;;;21.30;66.20;22.90;101002.00;;;;5075647;28;20276;-73
2023/10/12 00:26:41;;;;;;;9.45;6.43;;;21.30;66.20;22.80;101002.00;;;;5077008;28;20198;-74
2023/10/12 00:29:08;;;;;;;14.90;7.38;;;21.30;66.40;22.90;100998.00;;;;5089191;28;20196;-74
2023/10/12 00:31:42;;;;;;;11.07;7.32;;;21.30;66.40;22.80;101009.00;;;;5081172;28;20209;-75
2023/10/12 00:34:11;;;;;;;11.82;6.63;;;21.30;66.60;22.90;101004.00;;;;5073497;28;20209;-74
2023/10/12 00:36:40;;;;;;;13.73;7.70;;;21.30;66.60;22.90;101002.00;;;;5088707;28;20751;-74
2023/10/12 00:39:10;;;;;;;12.25;7.15;;;21.30;66.70;22.80;101007.00;;;;5077026;28;20194;-74
2023/10/12 00:41:44;;;;;;;11.18;6.63;;;21.30;66.80;22.90;101008.00;;;;5070222;28;20207;-74
2023/10/12 00:44:12;;;;;;;12.00;7.43;;;21.30;66.80;22.90;101017.00;;;;5075882;28;20222;-74
2023/10/12 00:46:58;;;;;;;10.60;7.05;;;21.30;66.90;22.80;101020.00;;;;5078692;28;20199;-75
2023/10/12 00:49:29;;;;;;;13.00;7.10;;;21.30;67.70;22.80;101022.00;;;;5077374;28;20215;-74
2023/10/12 00:52:08;;;;;;;10.60;7.38;;;21.30;67.00;22.80;101024.00;;;;5078335;28;20561;-74
2023/10/12 00:54:49;;;;;;;11.52;6.95;;;21.30;67.00;22.80;101024.00;;;;5075654;28;20237;-74
2023/10/12 00:57:16;;;;;;;9.93;7.13;;;21.30;67.10;22.80;101033.00;;;;5078143;28;20203;-75
2023/10/12 00:59:46;;;;;;;10.95;8.23;;;21.30;67.20;22.80;101027.00;;;;5073566;28;20197;-75
2023/10/12 01:02:24;;;;;;;12.43;7.35;;;21.20;67.20;22.70;101027.00;;;;5077202;28;20234;-77
2023/10/12 01:04:53;;;;;;;15.55;7.68;;;21.20;67.30;22.70;101019.00;;;;5071897;28;20289;-75
2023/10/12 01:07:25;;;;;;;13.00;8.05;;;21.20;67.30;22.70;101032.00;;;;5073107;28;20195;-75
2023/10/12 01:10:03;;;;;;;11.95;7.78;;;21.20;67.40;22.70;101029.00;;;;5087605;28;20277;-75
2023/10/12 01:12:32;;;;;;;14.43;7.78;;;21.20;67.50;22.70;101027.00;;;;5085463;28;21126;-75
2023/10/12 01:15:05;;;;;;;13.18;7.40;;;21.20;67.50;22.70;101034.00;;;;5068369;28;20195;-74
2023/10/12 01:17:35;;;;;;;11.20;7.20;;;21.20;67.60;22.60;101034.00;;;;5068870;28;20244;-74
2023/10/12 01:20:11;;;;;;;13.38;7.45;;;21.20;67.70;22.70;101033.00;;;;5068350;28;21060;-74
2023/10/12 01:22:41;;;;;;;13.43;7.18;;;21.20;67.60;22.60;101035.00;;;;5068186;28;20199;-75
2023/10/12 01:25:20;;;;;;;11.23;7.53;;;21.20;67.70;22.60;101041.00;;;;5079035;28;20699;-75
2023/10/12 01:27:49;;;;;;;13.43;7.10;;;21.10;67.60;22.60;101037.00;;;;5068126;28;20293;-75
2023/10/12 01:30:21;;;;;;;11.25;7.10;;;21.20;68.40;22.60;101037.00;;;;5077013;28;20282;-76
2023/10/12 01:32:53;;;;;;;12.73;7.40;;;21.10;67.70;22.60;101037.00;;;;5068907;28;20633;-76
2023/10/12 01:35:27;;;;;;;12.45;6.28;;;21.10;67.70;22.60;101036.00;;;;5071356;28;20697;-76
2023/10/12 01:38:01;;;;;;;10.98;7.13;;;21.10;67.70;22.60;101029.00;;;;5076431;28;20191;-76
2023/10/12 01:40:41;;;;;;;16.70;7.80;;;21.10;67.90;22.50;101035.00;;;;5068070;28;20207;-76
2023/10/12 01:43:12;;;;;;;9.20;5.97;;;21.10;67.80;22.50;101035.00;;;;5080381;28;20198;-76
2023/10/12 01:45:42;;;;;;;10.25;5.95;;;21.10;67.80;22.50;101026.00;;;;5080195;28;20222;-75
2023/10/12 01:48:12;;;;;;;6.72;5.30;;;21.10;67.80;22.50;101015.00;;;;5082421;28;20865;-75
2023/10/12 01:50:39;;;;;;;10.98;5.50;;;21.00;67.70;22.50;101014.00;;;;5084416;28;20663;-76
2023/10/12 01:53:23;;;;;;;10.65;5.10;;;21.00;67.70;22.50;101027.00;;;;5068759;28;20194;-75
2023/10/12 01:55:53;;;;;;;11.25;4.80;;;21.00;67.70;22.40;101026.00;;;;5074247;28;20190;-76
2023/10/12 01:58:23;;;;;;;7.15;4.05;;;21.00;67.50;22.40;101021.00;;;;5087142;28;20196;-75
2023/10/12 02:00:52;;;;;;;9.55;4.80;;;20.90;67.30;22.40;101025.00;;;;5070360;28;21072;-76
2023/10/12 02:03:26;;;;;;;12.02;4.53;;;20.90;67.20;22.40;101024.00;;;;5086102;28;20190;-76
2023/10/12 02:05:59;;;;;;;8.63;5.00;;;20.90;67.30;22.30;101032.00;;;;5071253;28;20632;-76
2023/10/12 02:08:34;;;;;;;10.85;4.63;;;20.80;67.30;22.30;101020.00;;;;5069138;28;20195;-75
2023/10/12 02:11:10;;;;;;;8.32;4.60;;;20.80;67.30;22.30;101005.00;;;;5083348;28;20659;-76
2023/10/12 02:13:37;;;;;;;10.88;4.05;;;20.80;67.40;22.30;101002.00;;;;5085118;28;20728;-76
2023/10/12 02:16:07;;;;;;;8.88;3.97;;;20.80;67.40;22.30;101000.00;;;;5070150;28;20194;-75
2023/10/12 02:18:35;;;;;;;7.53;4.07;;;20.70;67.50;22.30;101006.00;;;;5073307;28;20203;-76
2023/10/12 02:21:09;;;;;;;8.30;4.63;;;20.70;67.60;22.30;100995.00;;;;5066986;28;20195;-76
2023/10/12 02:23:53;;;;;;;12.40;4.65;;;20.70;67.60;22.30;101003.00;;;;5073723;28;20226;-75
2023/10/12 02:26:32;;;;;;;6.68;3.97;;;20.70;67.70;22.30;100992.00;;;;5084036;28;20596;-76
2023/10/12 02:29:11;;;;;;;6.45;4.10;;;20.70;67.70;22.30;101008.00;;;;5075924;28;20211;-75
2023/10/12 02:31:40;;;;;;;10.13;4.53;;;20.70;67.70;22.30;101012.00;;;;5078676;28;20209;-76
2023/10/12 02:34:13;;;;;;;11.85;4.35;;;20.70;67.80;22.30;101021.00;;;;5075469;28;20623;-76
2023/10/12 02:36:41;;;;;;;7.47;4.15;;;20.70;67.80;22.30;101021.00;;;;5079896;28;20234;-75
2023/10/12 02:39:15;;;;;;;15.02;5.00;;;20.70;67.80;22.20;101027.00;;;;5070965;28;20190;-75
2023/10/12 02:41:49;;;;;;;6.80;4.20;;;20.70;67.90;22.30;101025.00;;;;5074157;28;20268;-76
2023/10/12 02:44:18;;;;;;;7.60;4.22;;;20.70;67.90;22.20;101030.00;;;;5077481;28;20671;-76
2023/10/12 02:47:00;;;;;;;9.05;4.80;;;20.60;67.90;22.20;101026.00;;;;5088799;28;20202;-76
2023/10/12 02:49:28;;;;;;;9.20;4.07;;;20.60;67.90;22.20;101031.00;;;;5089305;28;20202;-76
2023/10/12 02:51:57;;;;;;;6.95;3.80;;;20.60;67.90;22.20;101023.00;;;;5079669;28;20198;-76
2023/10/12 02:54:26;;;;;;;6.70;5.07;;;20.60;68.00;22.20;101026.00;;;;5086647;28;20195;-76
2023/10/12 02:56:56;;;;;;;9.43;5.10;;;20.60;68.10;22.20;101016.00;;;;5071132;28;20190;-76
2023/10/12 02:59:25;;;;;;;7.78;3.63;;;20.60;68.20;22.20;100996.00;;;;5072971;28;20191;-75
2023/10/12 03:02:12;;;;;;;7.45;4.10;;;20.60;68.20;22.20;100998.00;;;;5071167;28;20330;-75
2023/10/12 03:04:40;;;;;;;5.55;3.75;;;20.60;68.20;22.20;100996.00;;;;5071908;28;20202;-75
2023/10/12 03:07:13;;;;;;;10.68;4.43;;;20.60;68.20;22.20;101005.00;;;;5076887;28;20201;-76
2023/10/12 03:09:43;;;;;;;13.00;4.82;;;20.60;68.20;22.20;101004.00;;;;5090462;28;20686;-76
2023/10/12 03:12:11;;;;;;;10.70;5.55;;;20.60;68.20;22.20;101003.00;;;;5071576;28;20594;-76
2023/10/12 03:14:41;;;;;;;8.32;4.50;;;20.60;68.30;22.20;101008.00;;;;5081967;28;20202;-76
2023/10/12 03:17:09;;;;;;;9.38;4.10;;;20.60;68.30;22.30;101012.00;;;;5090001;28;20709;-75
2023/10/12 03:19:36;;;;;;;12.48;4.72;;;20.60;68.30;22.30;101005.00;;;;5088283;28;20247;-76
2023/10/12 03:22:18;;;;;;;10.15;4.70;;;20.60;68.40;22.30;101003.00;;;;5070839;28;20614;-75
2023/10/12 03:24:51;;;;;;;8.40;4.13;;;20.60;68.40;22.30;101005.00;;;;5079355;28;20206;-75
2023/10/12 03:27:19;;;;;;;6.55;3.70;;;20.60;68.50;22.30;101004.00;;;;5077928;28;20727;-76
2023/10/12 03:29:51;;;;;;;7.72;4.60;;;20.60;68.40;22.30;101006.00;;;;5072257;28;20282;-76
2023/10/12 03:32:23;;;;;;;7.03;3.92;;;20.60;68.50;22.30;101014.00;;;;5082998;28;20197;-76
2023/10/12 03:34:56;;;;;;;5.78;3.97;;;20.60;68.40;22.30;101023.00;;;;5081483;28;20210;-76
2023/10/12 03:43:12;;;;;;;6.45;3.83;;;20.60;68.50;22.30;101005.00;;;;5074114;28;20199;-75
2023/10/12 03:45:49;;;;;;;5.85;3.72;;;20.60;68.40;22.30;101005.00;;;;5076985;28;20218;-75
2023/10/12 03:48:37;;;;;;;8.55;4.35;;;20.60;68.50;22.30;101003.00;;;;5076173;28;20284;-75
2023/10/12 03:51:23;;;;;;;9.43;4.53;;;20.60;68.50;22.30;101007.00;;;;5086543;28;20198;-76
2023/10/12 03:53:57;;;;;;;9.73;3.78;;;20.60;68.50;22.30;101007.00;;;;5087388;28;20194;-76
2023/10/12 03:56:36;;;;;;;10.15;4.53;;;20.60;68.50;22.20;101010.00;;;;5078704;28;20665;-75
2023/10/12 03:59:06;;;;;;;5.90;3.85;;;20.60;68.50;22.30;101009.00;;;;5072651;28;20219;-75
2023/10/12 04:01:35;;;;;;;9.68;4.30;;;20.60;68.50;22.30;101009.00;;;;5076976;28;20235;-76
2023/10/12 04:04:16;;;;;;;11.10;4.05;;;20.60;68.50;22.30;101013.00;;;;5079232;28;20208;-76
2023/10/12 04:09:42;;;;;;;9.90;4.25;;;20.60;68.60;22.30;101027.00;;;;5071626;28;20198;-76
2023/10/12 04:12:19;;;;;;;8.27;4.10;;;20.60;68.60;22.20;101015.00;;;;5074438;28;20227;-75
2023/10/12 04:14:51;;;;;;;4.75;4.10;;;20.60;68.70;22.20;101010.00;;;;5074819;28;20263;-75
2023/10/12 04:17:41;;;;;;;7.20;4.25;;;20.60;68.60;22.30;101013.00;;;;5081810;28;20209;-75
2023/10/12 04:20:17;;;;;;;8.63;3.72;;;20.60;68.70;22.20;101026.00;;;;5069668;28;21025;-77
2023/10/12 04:25:46;;;;;;;6.63;3.90;;;20.60;69.30;22.20;101023.00;;;;5079836;28;20225;-77
2023/10/12 04:33:50;;;;;;;8.32;4.40;;;20.60;68.70;22.20;101039.00;;;;5069487;28;20641;-77
2023/10/12 04:36:27;;;;;;;11.13;5.00;;;20.60;68.70;22.20;101048.00;;;;5075238;28;20218;-76
2023/10/12 04:39:02;;;;;;;9.93;3.92;;;20.60;68.70;22.20;101050.00;;;;5087406;28;20198;-77
2023/10/12 04:41:47;;;;;;;8.23;4.40;;;20.50;68.60;22.20;101040.00;;;;5082518;28;20789;-76
2023/10/12 04:47:12;;;;;;;9.38;4.53;;;20.60;68.70;22.20;101043.00;;;;5023667;28;20275;-76
2023/10/12 04:52:36;;;;;;;8.55;4.43;;;20.50;69.10;22.20;101044.00;;;;5048646;28;20218;-77
2023/10/12 04:55:22;;;;;;;5.72;3.97;;;20.50;68.70;22.20;101046.00;;;;5068756;28;20206;-77
2023/10/12 05:00:48;;;;;;;9.63;4.38;;;20.50;68.70;22.20;101059.00;;;;5071391;28;20300;-76
2023/10/12 05:03:25;;;;;;;9.15;5.20;;;20.50;68.80;22.20;101053.00;;;;5085500;28;20263;-76
2023/10/12 05:06:04;;;;;;;7.00;4.72;;;20.50;68.70;22.20;101057.00;;;;5078549;28;20218;-76
2023/10/12 05:08:33;;;;;;;9.75;5.00;;;20.50;68.80;22.20;101060.00;;;;5068359;28;20206;-76
2023/10/12 05:11:00;;;;;;;7.50;5.00;;;20.50;68.90;22.20;101068.00;;;;5068305;28;20191;-76
2023/10/12 05:13:28;;;;;;;6.85;4.30;;;20.50;68.90;22.20;101072.00;;;;5074740;28;20210;-76
2023/10/12 05:15:55;;;;;;;6.43;4.97;;;20.50;68.90;22.20;101080.00;;;;5081183;28;20190;-76
2023/10/12 05:18:24;;;;;;;6.82;4.55;;;20.50;69.00;22.10;101069.00;;;;5068532;28;20198;-76
2023/10/12 05:20:52;;;;;;;10.55;4.90;;;20.50;68.90;22.20;101083.00;;;;5072720;28;20201;-76
2023/10/12 05:23:21;;;;;;;9.15;4.53;;;20.50;69.00;22.20;101080.00;;;;5069287;28;20194;-76
2023/10/12 05:25:53;;;;;;;10.57;4.43;;;20.50;69.00;22.20;101089.00;;;;5074477;28;20240;-76
2023/10/12 05:28:27;;;;;;;7.63;4.28;;;20.50;69.00;22.10;101087.00;;;;5068638;28;20194;-76
2023/10/12 05:30:59;;;;;;;5.70;3.75;;;20.50;68.90;22.20;101101.00;;;;5068713;28;20191;-76
2023/10/12 05:33:38;;;;;;;5.35;2.97;;;20.50;68.90;22.10;101101.00;;;;5078071;28;20637;-76
2023/10/12 05:36:09;;;;;;;4.57;2.63;;;20.50;68.80;22.10;101091.00;;;;5078592;28;20734;-76
2023/10/12 05:38:38;;;;;;;1.60;1.25;;;20.50;68.80;22.10;101092.00;;;;5069890;28;20604;-76
2023/10/12 05:41:08;;;;;;;1.55;0.98;;;20.50;68.60;22.00;101092.00;;;;5077777;28;20195;-75
2023/10/12 05:43:38;;;;;;;1.35;0.82;;;20.40;68.50;22.00;101094.00;;;;5081730;28;20285;-76
2023/10/12 05:46:13;;;;;;;0.95;0.68;;;20.40;68.40;21.90;101103.00;;;;5078197;28;20215;-75
2023/10/12 05:48:45;;;;;;;2.40;0.60;;;20.40;68.40;21.90;101102.00;;;;5078061;28;20671;-76
2023/10/12 05:51:15;;;;;;;1.00;0.50;;;20.30;68.20;21.90;101102.00;;;;5083501;28;20281;-75
2023/10/12 05:53:42;;;;;;;1.17;0.60;;;20.30;68.10;21.80;101113.00;;;;5084059;28;20286;-75
2023/10/12 05:56:09;;;;;;;1.30;0.70;;;20.30;68.00;21.80;101114.00;;;;5079186;28;20198;-76
2023/10/12 05:58:38;;;;;;;1.25;0.50;;;20.20;67.80;21.70;101119.00;;;;5087727;28;20277;-76
2023/10/12 06:01:09;;;;;;;1.75;0.68;;;20.20;67.80;21.70;101118.00;;;;5077598;28;20246;-75
2023/10/12 06:03:39;;;;;;;0.98;0.73;;;20.10;67.80;21.60;101125.00;;;;5074457;28;20336;-76
2023/10/12 06:06:09;;;;;;;1.20;0.75;;;20.10;67.90;21.60;101130.00;;;;5072174;28;20606;-76
2023/10/12 06:08:37;;;;;;;2.38;0.70;;;20.00;67.80;21.60;101134.00;;;;5069098;28;20251;-76
2023/10/12 06:11:07;;;;;;;1.38;0.65;;;19.90;67.80;21.50;101136.00;;;;5092829;28;20280;-76
2023/10/12 06:13:42;;;;;;;1.40;0.73;;;19.90;67.80;21.50;101141.00;;;;5086739;28;20187;-76
2023/10/12 06:16:14;;;;;;;1.80;0.70;;;19.90;67.90;21.50;101138.00;;;;5077570;28;20271;-76
2023/10/12 06:18:45;;;;;;;1.20;0.75;;;19.80;67.90;21.40;101146.00;;;;5086264;28;20220;-77
2023/10/12 06:21:17;;;;;;;1.15;0.47;;;19.80;68.00;21.40;101145.00;;;;5077350;28;20202;-76
2023/10/12 06:23:48;;;;;;;4.32;0.55;;;19.80;67.90;21.40;101143.00;;;;5075935;28;20338;-76
2023/10/12 06:26:28;;;;;;;2.95;0.80;;;19.70;67.90;21.30;101154.00;;;;5073863;28;20277;-76
2023/10/12 06:28:57;;;;;;;0.73;0.50;;;19.70;67.90;21.30;101157.00;;;;5093098;28;20636;-76
2023/10/12 06:31:29;;;;;;;0.85;0.30;;;19.70;67.80;21.20;101161.00;;;;5094624;28;20206;-76
2023/10/12 06:33:57;;;;;;;0.50;0.30;;;19.60;67.80;21.20;101161.00;;;;5079186;28;20190;-77
2023/10/12 06:36:37;;;;;;;1.10;0.70;;;19.60;67.90;21.10;101162.00;;;;5091238;28;20462;-76
2023/10/12 06:44:35;;;;;;;5.15;0.65;;;19.50;68.70;21.20;101165.00;;;;5077725;28;20586;-76
2023/10/12 06:47:28;;;;;;;0.50;0.40;;;19.50;68.50;21.20;101165.00;;;;5082052;28;20273;-77
2023/10/12 06:49:51;;;;;;;0.20;0.20;;;19.50;68.50;21.10;101161.00;;;;5077407;28;20209;-77
2023/10/12 06:52:19;;;;;;;0.45;0.30;;;19.50;68.20;21.10;101161.00;;;;5081681;28;20206;-76
2023/10/12 06:54:54;;;;;;;0.80;0.20;;;19.50;68.10;21.10;101164.00;;;;5081656;28;20194;-76
2023/10/12 06:57:35;;;;;;;0.40;0.20;;;19.40;68.00;21.10;101177.00;;;;5079667;28;20614;-76
2023/10/12 07:02:45;;;;;;;0.20;0.10;;;19.40;68.10;21.00;101191.00;;;;5072603;28;20225;-76
2023/10/12 07:05:11;;;;;;;0.30;0.13;;;19.40;67.90;21.00;101188.00;;;;5077276;28;20291;-76
2023/10/12 07:07:41;;;;;;;1.52;0.22;;;19.30;67.80;20.90;101193.00;;;;5085009;28;21021;-76
2023/10/12 07:10:24;;;;;;;0.20;0.15;;;19.30;67.90;20.90;101194.00;;;;5074567;28;20199;-76
2023/10/12 07:12:51;;;;;;;1.48;0.40;;;19.30;68.00;20.90;101204.00;;;;5072607;28;20252;-76
2023/10/12 07:15:21;;;;;;;0.60;0.30;;;19.20;67.90;20.90;101204.00;;;;5074166;28;20195;-75
2023/10/12 07:17:51;;;;;;;0.32;0.30;;;19.20;67.90;20.90;101203.00;;;;5074534;28;20205;-76
2023/10/12 07:20:40;;;;;;;0.50;0.28;;;19.20;67.90;20.80;101208.00;;;;5072578;28;20256;-76
2023/10/12 07:23:14;;;;;;;0.60;0.30;;;19.20;67.90;20.80;101209.00;;;;5069631;28;20217;-77
2023/10/12 07:25:43;;;;;;;0.45;0.30;;;19.10;68.00;20.80;101213.00;;;;5072963;28;20282;-77
2023/10/12 07:28:19;;;;;;;2.15;0.50;;;19.10;68.00;20.80;101223.00;;;;5080291;28;20672;-77
2023/10/12 07:33:32;;;;;;;1.35;0.50;;;19.10;68.10;20.70;101223.00;;;;5088781;28;20201;-77
2023/10/12 07:36:08;;;;;;;1.17;0.40;;;19.00;68.10;20.60;101231.00;;;;5070140;28;20398;-77
2023/10/12 07:38:36;;;;;;;0.77;0.38;;;19.00;68.20;20.70;101225.00;;;;5071161;28;20210;-77
2023/10/12 07:41:05;;;;;;;1.33;0.40;;;19.00;68.10;20.70;101226.00;;;;5081749;28;20238;-77
2023/10/12 07:43:32;;;;;;;0.55;0.40;;;19.00;68.20;20.70;101234.00;;;;5087241;28;20227;-77
2023/10/12 07:46:09;;;;;;;0.70;0.50;;;19.00;68.20;20.60;101225.00;;;;5084231;28;20230;-77
2023/10/12 07:48:42;;;;;;;0.65;0.45;;;19.00;68.20;20.60;101231.00;;;;5081710;28;20582;-77
2023/10/12 07:51:18;;;;;;;1.00;0.50;;;19.00;68.20;20.60;101221.00;;;;5077725;28;20195;-77
2023/10/12 07:53:49;;;;;;;0.82;0.68;;;18.90;68.20;20.60;101237.00;;;;5068325;28;20279;-77
2023/10/12 07:56:16;;;;;;;1.02;0.40;;;18.90;68.30;20.60;101237.00;;;;5082625;28;20285;-77
2023/10/12 07:58:50;;;;;;;0.50;0.40;;;18.90;68.30;20.60;101236.00;;;;5068701;28;20202;-77
2023/10/12 08:01:39;;;;;;;0.40;0.30;;;18.90;68.40;20.60;101237.00;;;;5068955;28;20230;-77
2023/10/12 08:04:28;;;;;;;1.02;0.68;;;18.90;68.40;20.60;101247.00;;;;5068643;28;20195;-77
2023/10/12 08:06:56;;;;;;;0.90;0.52;;;18.90;68.50;20.60;101240.00;;;;5074233;28;20266;-77
2023/10/12 08:09:39;;;;;;;0.70;0.60;;;18.90;68.50;20.70;101235.00;;;;5069007;28;20187;-77
2023/10/12 08:14:47;;;;;;;0.80;0.70;;;19.00;68.70;20.60;101253.00;;;;5070850;28;20244;-78
2023/10/12 08:17:33;;;;;;;1.35;0.47;;;19.00;68.50;20.60;101246.00;;;;5068985;28;20195;-78
2023/10/12 08:23:02;;;;;;;0.80;0.50;;;18.90;68.40;20.60;101250.00;;;;5021420;28;20252;-78
2023/10/12 08:25:38;;;;;;;0.60;0.40;;;18.90;68.30;20.60;101230.00;;;;5066959;28;20195;-78
2023/10/12 08:28:18;;;;;;;0.85;0.70;;;18.90;68.30;20.60;101228.00;;;;5083408;28;20221;-77
2023/10/12 08:30:57;;;;;;;0.73;0.60;;;18.90;68.30;20.60;101238.00;;;;5068291;28;20191;-77
2023/10/12 08:36:24;;;;;;;1.08;0.45;;;18.90;68.40;20.60;101244.00;;;;5067146;28;20210;-77
2023/10/12 08:38:53;;;;;;;1.52;0.68;;;18.80;68.40;20.60;101234.00;;;;5072794;28;20202;-77
2023/10/12 08:41:36;;;;;;;1.02;0.57;;;18.80;68.30;20.50;101239.00;;;;5074336;28;20203;-77
2023/10/12 08:44:04;;;;;;;1.10;0.60;;;18.90;68.50;20.50;101226.00;;;;5087603;28;20229;-77
2023/10/12 08:46:51;;;;;;;0.70;0.45;;;18.80;68.40;20.50;101230.00;;;;5074604;28;20219;-77
2023/10/12 08:49:43;;;;;;;0.80;0.50;;;18.80;68.50;20.50;101230.00;;;;5068521;28;20203;-77
2023/10/12 08:52:19;;;;;;;0.55;0.40;;;18.80;68.60;20.50;101227.00;;;;5070614;28;20202;-77
2023/10/12 08:54:52;;;;;;;2.33;0.52;;;18.80;68.70;20.50;101238.00;;;;5067799;28;20269;-77
2023/10/12 08:57:35;;;;;;;0.70;0.50;;;18.80;69.00;20.60;101232.00;;;;5068952;28;20199;-76
2023/10/12 09:00:39;;;;;;;1.13;0.63;;;18.80;69.00;20.60;101243.00;;;;5067816;28;20222;-77
2023/10/12 09:03:14;;;;;;;1.63;0.68;;;18.90;69.00;20.60;101230.00;;;;5067593;28;20207;-77
2023/10/12 09:05:42;;;;;;;0.50;0.40;;;18.90;68.90;20.60;101243.00;;;;5068801;28;20194;-77
2023/10/12 09:11:13;;;;;;;1.20;0.68;;;18.90;68.90;20.70;101249.00;;;;5019158;27;1214238;-77
2023/10/12 09:13:46;;;;;;;0.95;0.52;;;19.00;69.00;20.70;101252.00;;;;5024420;28;20557;-77
2023/10/12 09:16:17;;;;;;;2.08;0.77;;;19.00;69.00;20.70;101253.00;;;;5026964;28;20238;-76
2023/10/12 09:18:46;;;;;;;0.70;0.68;;;19.00;69.10;20.70;101252.00;;;;5024988;28;20654;-77
2023/10/12 09:21:23;;;;;;;0.52;0.50;;;19.00;69.00;20.70;101251.00;;;;5029042;28;20210;-77
2023/10/12 09:23:58;;;;;;;1.05;0.60;;;19.00;68.90;20.70;101257.00;;;;5024185;28;20199;-77
2023/10/12 09:26:33;;;;;;;1.77;0.70;;;19.00;68.80;20.70;101258.00;;;;5036594;28;20285;-76
2023/10/12 09:29:13;;;;;;;1.55;0.80;;;19.00;68.90;20.70;101257.00;;;;5038852;28;20211;-76
2023/10/12 09:31:54;;;;;;;0.55;0.50;;;19.00;69.00;20.70;101262.00;;;;5027605;28;20204;-76
2023/10/12 09:34:42;;;;;;;0.82;0.55;;;19.00;69.00;20.80;101253.00;;;;5025871;28;20670;-77
2023/10/12 09:37:16;;;;;;;0.70;0.55;;;19.10;69.10;20.70;101244.00;;;;5033632;28;20214;-77
2023/10/12 09:39:47;;;;;;;0.68;0.60;;;19.10;69.00;20.80;101261.00;;;;5037107;28;20207;-76
2023/10/12 09:42:30;;;;;;;1.30;0.60;;;19.10;69.10;20.70;101252.00;;;;5030028;28;20231;-76
2023/10/12 09:45:10;;;;;;;0.52;0.50;;;19.10;69.10;20.80;101246.00;;;;5027055;28;20600;-77
2023/10/12 09:47:50;;;;;;;0.60;0.50;;;19.10;69.00;20.80;101239.00;;;;5031137;28;20286;-77
2023/10/12 09:50:27;;;;;;;1.17;0.85;;;19.10;69.70;20.80;101234.00;;;;5038932;28;20230;-76
2023/10/12 09:52:58;;;;;;;0.70;0.52;;;19.10;69.00;20.80;101233.00;;;;5030425;28;20207;-76
2023/10/12 09:55:33;;;;;;;0.50;0.40;;;19.10;68.90;20.80;101245.00;;;;5031716;28;20242;-77
2023/10/12 09:58:14;;;;;;;0.70;0.50;;;19.10;68.90;20.80;101248.00;;;;5036949;28;20195;-77
2023/10/12 10:00:55;;;;;;;2.55;0.50;;;19.10;68.90;20.80;101245.00;;;;5040879;28;20685;-76
2023/10/12 10:03:28;;;;;;;2.63;0.88;;;19.10;68.90;20.80;101239.00;;;;5026440;28;20200;-77
2023/10/12 10:06:10;;;;;;;1.00;0.77;;;19.20;69.00;20.80;101233.00;;;;5033774;28;20242;-77
2023/10/12 10:08:45;;;;;;;0.70;0.50;;;19.20;69.20;20.90;101235.00;;;;5027113;28;20199;-77
2023/10/12 10:11:14;;;;;;;1.13;0.68;;;19.20;69.10;20.90;101216.00;;;;5033032;28;20254;-77
2023/10/12 10:13:47;;;;;;;1.50;0.60;;;19.20;69.00;20.90;101209.00;;;;5026854;28;20196;-76
2023/10/12 10:16:17;;;;;;;0.90;0.55;;;19.20;69.00;20.90;101214.00;;;;5028422;28;20251;-77
2023/10/12 10:18:49;;;;;;;0.50;0.40;;;19.20;69.00;20.90;101216.00;;;;5032781;28;20219;-77
2023/10/12 10:21:22;;;;;;;1.58;0.80;;;19.20;69.00;20.90;101222.00;;;;5032142;28;20196;-77
2023/10/12 10:23:52;;;;;;;0.85;0.65;;;19.20;69.00;20.90;101217.00;;;;5027290;28;20196;-77
2023/10/12 10:26:23;;;;;;;0.77;0.47;;;19.20;69.10;20.90;101222.00;;;;5030254;28;20262;-77
2023/10/12 10:28:58;;;;;;;1.38;0.68;;;19.30;69.20;20.90;101204.00;;;;5014861;28;20197;-77
2023/10/12 10:31:28;;;;;;;2.30;0.75;;;19.20;69.10;21.00;101201.00;;;;5018125;28;20376;-77
2023/10/12 10:34:01;;;;;;;0.73;0.63;;;19.30;69.20;21.00;101200.00;;;;5010749;28;20197;-76
2023/10/12 10:36:34;;;;;;;1.17;0.77;;;19.30;69.30;21.00;101202.00;;;;5024398;28;20729;-77
2023/10/12 10:39:28;;;;;;;1.23;0.90;;;19.30;69.20;21.00;101187.00;;;;5021227;28;20232;-77
2023/10/12 10:42:00;;;;;;;2.08;0.85;;;19.30;69.20;21.00;101192.00;;;;5024569;28;20659;-77
2023/10/12 10:44:29;;;;;;;0.73;0.73;;;19.30;69.20;21.00;101190.00;;;;5014632;28;20744;-78
2023/10/12 10:47:00;;;;;;;0.80;0.80;;;19.30;69.40;21.10;101181.00;;;;5026298;28;20299;-77
2023/10/12 10:49:30;;;;;;;1.20;1.10;;;19.30;69.30;21.10;101179.00;;;;5023365;28;20251;-76
2023/10/12 10:52:13;;;;;;;1.80;1.00;;;19.40;69.40;21.10;101171.00;;;;5028721;28;20231;-77
2023/10/12 10:54:56;;;;;;;1.67;1.02;;;19.40;69.50;21.10;101163.00;;;;5013577;28;20324;-77
2023/10/12 10:57:32;;;;;;;1.15;0.98;;;19.40;69.40;21.20;101163.00;;;;5029324;28;20642;-77
2023/10/12 11:00:01;;;;;;;1.92;1.45;;;19.40;69.40;21.20;101164.00;;;;5024736;28;20203;-77
2023/10/12 11:02:28;;;;;;;2.20;2.00;;;19.50;69.50;21.20;101159.00;;;;5026769;28;20197;-77
2023/10/12 11:05:00;;;;;;;3.38;1.73;;;19.50;69.50;21.20;101168.00;;;;5022842;28;20236;-77
2023/10/12 11:07:27;;;;;;;1.70;1.45;;;19.50;69.50;21.20;101169.00;;;;5023576;28;20209;-77
2023/10/12 11:12:48;;;;;;;2.00;1.80;;;19.50;69.50;21.30;101168.00;;;;4995386;28;20347;-77
2023/10/12 11:15:20;;;;;;;1.95;1.52;;;19.50;69.30;21.30;101162.00;;;;5010362;28;20670;-77
2023/10/12 11:17:56;;;;;;;2.40;1.92;;;19.60;69.40;21.30;101163.00;;;;5029102;28;20227;-77
2023/10/12 11:20:43;;;;;;;2.70;1.70;;;19.60;69.40;21.20;101168.00;;;;5012635;28;20208;-77
2023/10/12 11:23:11;;;;;;;2.72;1.92;;;19.60;69.60;21.30;101160.00;;;;5023470;28;20196;-77
2023/10/12 11:25:41;;;;;;;2.85;2.03;;;19.60;69.40;21.30;101161.00;;;;5020830;28;20209;-77
2023/10/12 11:28:20;;;;;;;2.03;1.83;;;19.60;69.40;21.20;101152.00;;;;5016459;28;20212;-77
2023/10/12 11:30:51;;;;;;;2.03;1.77;;;19.60;69.60;21.40;101151.00;;;;5010082;28;20220;-77
2023/10/12 11:33:27;;;;;;;3.85;2.13;;;19.60;70.20;21.30;101154.00;;;;5008939;28;20275;-77
2023/10/12 11:36:00;;;;;;;3.92;2.20;;;19.60;69.50;21.40;101159.00;;;;5018228;28;20207;-77
2023/10/12 11:38:28;;;;;;;2.78;2.30;;;19.70;69.50;21.40;101153.00;;;;5011699;28;20212;-77
2023/10/12 11:40:56;;;;;;;4.97;2.65;;;19.70;69.50;21.40;101157.00;;;;5015812;28;20204;-77
2023/10/12 11:43:29;;;;;;;4.13;2.17;;;19.70;69.50;21.40;101143.00;;;;5013983;28;20201;-77
2023/10/12 11:46:03;;;;;;;3.30;2.40;;;19.70;69.60;21.40;101131.00;;;;5017124;28;20200;-77
2023/10/12 11:48:31;;;;;;;3.97;2.88;;;19.70;69.60;21.40;101144.00;;;;5018305;28;20251;-77
2023/10/12 11:51:04;;;;;;;3.55;2.63;;;19.70;69.60;21.40;101143.00;;;;5014242;28;20604;-77
2023/10/12 11:53:31;;;;;;;4.22;2.65;;;19.70;69.70;21.50;101143.00;;;;5019091;28;21147;-77
2023/10/12 11:56:08;;;;;;;2.67;2.08;;;19.70;69.70;21.40;101153.00;;;;5010793;28;20204;-77
2023/10/12 11:58:35;;;;;;;3.92;2.88;;;19.70;69.80;21.50;101151.00;;;;5016906;28;20255;-77
2023/10/12 12:01:07;;;;;;;4.68;2.72;;;19.80;69.80;21.50;101139.00;;;;5013830;28;20208;-77
2023/10/12 12:03:39;;;;;;;2.72;2.47;;;19.80;69.90;21.50;101145.00;;;;5008781;28;20215;-77